Time;durP1;ratioP1;P1;durP2;ratioP2;P2;SDS_P1;SDS_P2;PMS_P1;PMS_P2;Temp;Humidity;BMP_temperature;BMP_pressure;BME280_temperature;BME280_humidity;BME280_pressure;Samples;Min_cycle;Max_cycle;Signal;HPM_P1;HPM_P2
2021/10/28 00:12:13;;;;;;;28.37;21.17;;;;;;;;;;5019543;28;20336;-75
2021/10/28 00:12:27;;;;;;;24.90;17.73;;;;;;;;;;5029693;28;20295;-75
2021/10/28 00:14:56;;;;;;;26.67;18.80;;;;;;;;;;5032542;28;20667;-75
2021/10/28 00:20:07;;;;;;;29.77;18.27;;;;;;;;;;5027574;28;20984;-74
2021/10/28 00:22:33;;;;;;;26.27;19.43;;;;;;;;;;5012231;28;20214;-74
2021/10/28 00:24:58;;;;;;;28.50;19.47;;;;;;;;;;5030119;28;20182;-76
2021/10/28 00:27:24;;;;;;;27.17;18.27;;;;;;;;;;5031266;28;20267;-74
2021/10/28 00:29:49;;;;;;;33.77;19.80;;;;;;;;;;5029544;28;21520;-74
2021/10/28 00:32:15;;;;;;;23.43;17.67;;;;;;;;;;5013508;28;20197;-74
2021/10/28 00:34:41;;;;;;;26.23;17.87;;;;;;;;;;5011905;28;20192;-75
2021/10/28 00:37:06;;;;;;;28.67;19.53;;;;;;;;;;5028670;28;20201;-75
2021/10/28 00:39:32;;;;;;;25.20;17.70;;;;;;;;;;5028721;28;20209;-74
2021/10/28 00:41:57;;;;;;;25.73;18.97;;;;;;;;;;5031075;28;20186;-74
2021/10/28 00:44:23;;;;;;;26.77;17.23;;;;;;;;;;5030177;28;20182;-74
2021/10/28 00:46:48;;;;;;;26.27;17.37;;;;;;;;;;5034223;28;20236;-75
2021/10/28 00:49:13;;;;;;;28.03;18.43;;;;;;;;;;5052100;28;20174;-74
2021/10/28 00:51:40;;;;;;;30.10;18.67;;;;;;;;;;5045506;28;20661;-74
2021/10/28 00:54:06;;;;;;;26.83;17.80;;;;;;;;;;5029232;28;20193;-74
2021/10/28 00:56:32;;;;;;;27.93;17.70;;;;;;;;;;5035842;28;20204;-74
2021/10/28 00:58:59;;;;;;;28.67;18.07;;;;;;;;;;5013298;28;20209;-74
2021/10/28 01:01:24;;;;;;;24.33;17.03;;;;;;;;;;5012611;28;20240;-74
2021/10/28 01:03:49;;;;;;;25.70;19.53;;;;;;;;;;5029086;28;20174;-74
2021/10/28 01:06:14;;;;;;;26.60;18.70;;;;;;;;;;5029045;28;20645;-75
2021/10/28 01:08:44;;;;;;;24.70;17.93;;;;;;;;;;5010862;28;20206;-74
2021/10/28 01:11:10;;;;;;;30.30;19.13;;;;;;;;;;5011640;28;20181;-75
2021/10/28 01:13:36;;;;;;;25.50;18.10;;;;;;;;;;5014271;28;21348;-75
2021/10/28 01:16:02;;;;;;;33.27;19.57;;;;;;;;;;5010491;28;20310;-74
2021/10/28 01:18:29;;;;;;;26.50;18.37;;;;;;;;;;5035037;28;20174;-75
2021/10/28 01:20:54;;;;;;;27.53;17.53;;;;;;;;;;5039492;28;20193;-74
2021/10/28 01:23:21;;;;;;;27.77;18.97;;;;;;;;;;5028350;28;20178;-74
2021/10/28 01:26:06;;;;;;;30.40;18.50;;;;;;;;;;5028795;28;20197;-75
2021/10/28 01:28:33;;;;;;;28.03;18.87;;;;;;;;;;5030937;28;20181;-74
2021/10/28 01:31:00;;;;;;;29.33;19.07;;;;;;;;;;5030840;28;20192;-73
2021/10/28 01:33:26;;;;;;;31.83;18.27;;;;;;;;;;5012368;28;20602;-75
2021/10/28 01:35:53;;;;;;;25.90;17.70;;;;;;;;;;5010806;28;20197;-74
2021/10/28 01:38:18;;;;;;;31.20;18.33;;;;;;;;;;5027901;28;20280;-74
2021/10/28 01:40:52;;;;;;;29.87;19.07;;;;;;;;;;5028590;28;20205;-75
2021/10/28 01:43:17;;;;;;;27.80;18.77;;;;;;;;;;5030627;28;20287;-74
2021/10/28 01:45:42;;;;;;;31.70;19.83;;;;;;;;;;5034895;28;20205;-74
2021/10/28 01:48:08;;;;;;;30.13;19.03;;;;;;;;;;5027225;28;20189;-74
2021/10/28 01:50:33;;;;;;;30.03;19.03;;;;;;;;;;5029910;28;20291;-75
2021/10/28 01:52:58;;;;;;;28.47;18.27;;;;;;;;;;5010953;28;20203;-75
2021/10/28 01:55:24;;;;;;;25.50;18.13;;;;;;;;;;5029459;28;20202;-75
2021/10/28 01:57:49;;;;;;;30.30;19.50;;;;;;;;;;5035377;28;20174;-75
2021/10/28 02:00:16;;;;;;;24.37;17.33;;;;;;;;;;5027003;28;20201;-75
2021/10/28 02:02:42;;;;;;;26.27;17.03;;;;;;;;;;5022467;28;20268;-74
2021/10/28 02:05:09;;;;;;;23.27;15.97;;;;;;;;;;5009460;28;20316;-74
2021/10/28 02:07:34;;;;;;;27.00;17.27;;;;;;;;;;5012098;28;20182;-74
2021/10/28 02:09:59;;;;;;;26.43;16.83;;;;;;;;;;5027922;28;20188;-74
2021/10/28 02:12:25;;;;;;;26.23;17.17;;;;;;;;;;5028263;28;20852;-74
2021/10/28 02:14:50;;;;;;;24.77;16.27;;;;;;;;;;5011629;28;20181;-74
2021/10/28 02:17:15;;;;;;;27.57;17.37;;;;;;;;;;5031829;22;20277;-72
2021/10/28 02:19:40;;;;;;;24.87;16.87;;;;;;;;;;5008447;28;20324;-71
2021/10/28 02:22:05;;;;;;;28.97;17.27;;;;;;;;;;5010447;28;20304;-72
2021/10/28 02:24:30;;;;;;;27.27;16.90;;;;;;;;;;5011844;28;20193;-72
2021/10/28 02:26:56;;;;;;;22.63;16.20;;;;;;;;;;4982319;28;20195;-72
2021/10/28 02:29:21;;;;;;;24.03;16.83;;;;;;;;;;4991908;28;20269;-72
2021/10/28 02:31:46;;;;;;;25.63;16.50;;;;;;;;;;4991195;28;20186;-72
2021/10/28 02:34:12;;;;;;;23.70;15.93;;;;;;;;;;4992015;28;20198;-72
2021/10/28 02:36:37;;;;;;;28.97;17.70;;;;;;;;;;4993728;28;20214;-72
2021/10/28 02:39:02;;;;;;;25.87;16.30;;;;;;;;;;4990933;28;20213;-71
2021/10/28 02:41:28;;;;;;;24.93;16.10;;;;;;;;;;4991809;28;20183;-72
2021/10/28 02:43:54;;;;;;;24.70;15.33;;;;;;;;;;4990412;28;20297;-72
2021/10/28 02:46:19;;;;;;;21.47;15.90;;;;;;;;;;4991502;28;20218;-71
2021/10/28 02:48:44;;;;;;;22.13;15.63;;;;;;;;;;4994164;28;20175;-71
2021/10/28 02:51:09;;;;;;;23.70;14.70;;;;;;;;;;4992707;28;20206;-72
2021/10/28 02:53:34;;;;;;;22.50;16.00;;;;;;;;;;4991592;28;20211;-71
2021/10/28 02:56:00;;;;;;;20.00;14.17;;;;;;;;;;4991677;28;20201;-72
2021/10/28 02:58:25;;;;;;;22.07;14.70;;;;;;;;;;4999237;28;20629;-72
2021/10/28 03:00:50;;;;;;;27.57;15.37;;;;;;;;;;4993972;28;20610;-71
2021/10/28 03:03:16;;;;;;;23.07;13.93;;;;;;;;;;4993449;28;20570;-71
2021/10/28 03:05:41;;;;;;;23.90;14.20;;;;;;;;;;5004338;28;20675;-71
2021/10/28 03:08:06;;;;;;;19.27;12.93;;;;;;;;;;4999960;28;20724;-71
2021/10/28 03:10:31;;;;;;;18.70;13.63;;;;;;;;;;4989017;28;20183;-72
2021/10/28 03:12:56;;;;;;;20.70;13.23;;;;;;;;;;4991979;28;20187;-71
2021/10/28 03:15:25;;;;;;;20.87;13.63;;;;;;;;;;4995135;28;20647;-72
2021/10/28 03:25:58;;;;;;;21.00;13.83;;;;;;;;;;4990027;28;20221;-72
2021/10/28 03:28:23;;;;;;;18.80;12.80;;;;;;;;;;4995165;28;20645;-72
2021/10/28 03:30:49;;;;;;;25.77;14.47;;;;;;;;;;4971359;28;20201;-72
2021/10/28 03:33:21;;;;;;;19.77;13.93;;;;;;;;;;4995025;28;20197;-72
2021/10/28 03:35:47;;;;;;;21.40;14.00;;;;;;;;;;4992185;28;20213;-71
2021/10/28 03:38:28;;;;;;;19.53;13.60;;;;;;;;;;4995025;28;20559;-72
2021/10/28 03:43:58;;;;;;;18.43;13.60;;;;;;;;;;4992486;28;20260;-72
2021/10/28 03:49:30;;;;;;;18.90;12.97;;;;;;;;;;4993899;28;20205;-72
2021/10/28 04:00:18;;;;;;;22.77;14.37;;;;;;;;;;4992709;28;20325;-71
2021/10/28 04:03:55;;;;;;;23.77;13.87;;;;;;;;;;4993910;28;20735;-71
2021/10/28 04:19:13;;;;;;;21.97;15.03;;;;;;;;;;4994338;28;20967;-72
2021/10/28 04:29:30;;;;;;;22.47;14.87;;;;;;;;;;4993473;28;20198;-72
2021/10/28 04:31:55;;;;;;;21.83;15.30;;;;;;;;;;4993327;28;20187;-71
2021/10/28 04:34:20;;;;;;;26.87;15.07;;;;;;;;;;4991988;28;20642;-72
2021/10/28 04:36:45;;;;;;;21.47;15.47;;;;;;;;;;4992988;28;20318;-72
2021/10/28 04:39:10;;;;;;;23.50;16.53;;;;;;;;;;5000431;28;20210;-72
2021/10/28 04:41:36;;;;;;;24.93;16.23;;;;;;;;;;4997261;28;20185;-71
2021/10/28 04:44:02;;;;;;;21.40;15.13;;;;;;;;;;4976413;28;20187;-71
2021/10/28 04:46:27;;;;;;;20.50;14.47;;;;;;;;;;4993293;28;20921;-72
2021/10/28 04:48:53;;;;;;;21.70;14.43;;;;;;;;;;5000967;28;20190;-72
2021/10/28 04:51:18;;;;;;;25.90;15.03;;;;;;;;;;5002589;28;20210;-72
2021/10/28 04:53:43;;;;;;;29.27;16.17;;;;;;;;;;4996553;28;20191;-72
2021/10/28 04:56:08;;;;;;;32.63;17.27;;;;;;;;;;4997460;28;20196;-72
2021/10/28 04:58:33;;;;;;;22.17;14.73;;;;;;;;;;4998916;28;20643;-72
2021/10/28 05:00:59;;;;;;;22.07;15.50;;;;;;;;;;4992569;28;20477;-72
2021/10/28 05:03:24;;;;;;;20.23;14.47;;;;;;;;;;4990571;28;20207;-72
2021/10/28 05:05:49;;;;;;;21.20;14.80;;;;;;;;;;4993896;28;20199;-71
2021/10/28 05:08:14;;;;;;;23.73;15.27;;;;;;;;;;4974503;28;20309;-71
2021/10/28 05:10:40;;;;;;;23.60;15.83;;;;;;;;;;4992956;28;20827;-72
2021/10/28 05:13:05;;;;;;;22.60;14.53;;;;;;;;;;4992585;28;20232;-71
2021/10/28 05:15:31;;;;;;;23.50;15.93;;;;;;;;;;4990081;28;20607;-72
2021/10/28 05:17:56;;;;;;;22.77;15.60;;;;;;;;;;4989646;28;20191;-72
2021/10/28 05:20:21;;;;;;;23.80;14.33;;;;;;;;;;4991925;28;20231;-72
2021/10/28 05:22:46;;;;;;;22.53;14.77;;;;;;;;;;4993521;28;20187;-72
2021/10/28 05:25:11;;;;;;;26.73;15.33;;;;;;;;;;4993191;28;20178;-72
2021/10/28 05:27:37;;;;;;;24.37;15.47;;;;;;;;;;4994956;28;20727;-72
2021/10/28 05:30:03;;;;;;;20.33;14.50;;;;;;;;;;4992512;28;20660;-72
2021/10/28 05:32:28;;;;;;;26.20;15.63;;;;;;;;;;4993963;28;20203;-71
2021/10/28 05:34:58;;;;;;;21.23;14.60;;;;;;;;;;4990023;28;20277;-71
2021/10/28 05:37:23;;;;;;;22.30;14.23;;;;;;;;;;4993263;28;20218;-71
2021/10/28 05:39:49;;;;;;;27.57;16.17;;;;;;;;;;4991912;28;20234;-71
2021/10/28 05:42:14;;;;;;;28.07;15.37;;;;;;;;;;4992383;28;20190;-71
2021/10/28 05:44:39;;;;;;;23.93;14.40;;;;;;;;;;4973869;28;20676;-71
2021/10/28 05:47:04;;;;;;;32.77;16.03;;;;;;;;;;4993961;28;20203;-71
2021/10/28 05:49:31;;;;;;;25.63;15.47;;;;;;;;;;4993106;28;20210;-71
2021/10/28 05:51:57;;;;;;;23.47;15.33;;;;;;;;;;4991067;28;20175;-72
2021/10/28 05:54:22;;;;;;;22.80;15.13;;;;;;;;;;4992120;28;20178;-71
2021/10/28 05:56:47;;;;;;;25.60;14.70;;;;;;;;;;4997801;28;20503;-71
2021/10/28 05:59:12;;;;;;;28.40;15.37;;;;;;;;;;4993592;28;20209;-71
2021/10/28 06:01:37;;;;;;;24.30;15.10;;;;;;;;;;4991781;28;20657;-71
2021/10/28 06:04:03;;;;;;;24.57;14.87;;;;;;;;;;4994827;28;20303;-71
2021/10/28 06:06:28;;;;;;;21.93;14.27;;;;;;;;;;4992329;28;20223;-71
2021/10/28 06:08:53;;;;;;;24.33;15.27;;;;;;;;;;4990759;28;20186;-71
2021/10/28 06:11:19;;;;;;;24.90;15.03;;;;;;;;;;4993137;28;20179;-71
2021/10/28 06:13:46;;;;;;;26.23;15.47;;;;;;;;;;4992365;28;20171;-71
2021/10/28 06:16:12;;;;;;;22.53;15.27;;;;;;;;;;4989399;28;20469;-71
2021/10/28 06:18:38;;;;;;;25.60;14.97;;;;;;;;;;4992112;28;20179;-71
2021/10/28 06:21:05;;;;;;;26.67;15.87;;;;;;;;;;4996090;28;21598;-71
2021/10/28 06:23:30;;;;;;;26.47;16.47;;;;;;;;;;4993046;28;20301;-71
2021/10/28 06:25:55;;;;;;;25.77;15.07;;;;;;;;;;4994744;28;20206;-71
2021/10/28 06:28:21;;;;;;;29.73;16.20;;;;;;;;;;4993417;28;20183;-71
2021/10/28 06:30:46;;;;;;;26.13;15.07;;;;;;;;;;4991405;28;20190;-71
2021/10/28 06:33:16;;;;;;;26.70;15.00;;;;;;;;;;4991978;28;20186;-71
2021/10/28 06:35:43;;;;;;;25.40;15.33;;;;;;;;;;4974318;28;20225;-71
2021/10/28 06:38:08;;;;;;;24.87;15.00;;;;;;;;;;4993978;28;20828;-71
2021/10/28 06:40:33;;;;;;;26.83;16.43;;;;;;;;;;4991020;28;20207;-71
2021/10/28 06:42:58;;;;;;;25.17;15.60;;;;;;;;;;4988982;28;20274;-71
2021/10/28 06:45:24;;;;;;;25.30;14.97;;;;;;;;;;4994815;28;20223;-71
2021/10/28 06:47:49;;;;;;;38.67;19.57;;;;;;;;;;4993995;28;20167;-71
2021/10/28 06:50:16;;;;;;;34.87;16.77;;;;;;;;;;4998436;28;20727;-71
2021/10/28 06:53:06;;;;;;;37.00;17.50;;;;;;;;;;4997400;28;20186;-71
2021/10/28 06:55:45;;;;;;;31.20;16.57;;;;;;;;;;4993068;28;20175;-71
2021/10/28 07:03:30;;;;;;;35.47;18.27;;;;;;;;;;4993183;28;20271;-71
2021/10/28 07:05:58;;;;;;;29.13;17.83;;;;;;;;;;4993543;28;20195;-71
2021/10/28 07:08:24;;;;;;;37.93;18.57;;;;;;;;;;4996460;28;20179;-71
2021/10/28 07:10:52;;;;;;;36.17;17.80;;;;;;;;;;4997366;28;20176;-71
2021/10/28 07:13:21;;;;;;;35.63;18.47;;;;;;;;;;4996290;28;20274;-71
2021/10/28 07:15:53;;;;;;;34.60;18.27;;;;;;;;;;4990864;28;20786;-71
2021/10/28 07:21:05;;;;;;;34.70;18.73;;;;;;;;;;5013852;28;20714;-71
2021/10/28 07:55:58;;;;;;;37.70;19.33;;;;;;;;;;5004184;28;20201;-71
2021/10/28 08:22:04;;;;;;;18.23;13.15;;;;;;;;;;4986095;28;20278;-71
2021/10/28 08:28:39;;;;;;;23.17;15.18;;;;;;;;;;4994935;28;20174;-71
2021/10/28 08:29:59;;;;;;;16.55;12.02;;;;;;;;;;4996954;28;20245;-71
2021/10/28 08:32:24;;;;;;;12.95;10.82;;;;;;;;;;4990617;28;20191;-71
2021/10/28 08:34:51;;;;;;;14.10;11.10;;;;;;;;;;4991296;28;20202;-71
2021/10/28 08:37:18;;;;;;;16.67;12.25;;;;;;;;;;4995141;28;20751;-71
2021/10/28 08:39:45;;;;;;;14.75;11.32;;;;;;;;;;4994501;28;20210;-71
2021/10/28 08:42:11;;;;;;;15.93;11.75;;;;;;;;;;4988395;28;20171;-71
2021/10/28 08:44:40;;;;;;;15.73;11.27;;;;;;;;;;4976485;28;20183;-71
2021/10/28 08:47:06;;;;;;;15.63;11.50;;;;;;;;;;4991507;28;20205;-71
2021/10/28 08:49:38;;;;;;;19.05;13.05;;;;;;;;;;4990490;28;20175;-71
2021/10/28 08:52:38;;;;;;;18.50;11.65;;;;;;;;;;4973898;28;20226;-71
2021/10/28 09:25:22;;;;;;;12.35;10.40;;;;;;;;;;4997714;28;20256;-71
2021/10/28 09:30:33;;;;;;;13.18;10.77;;;;;;;;;;4997684;28;20237;-71
2021/10/28 09:33:15;;;;;;;12.80;9.90;;;;;;;;;;4991930;28;20802;-71
2021/10/28 09:45:13;;;;;;;11.77;9.32;;;;;;;;;;4999905;28;20197;-71
2021/10/28 09:47:43;;;;;;;11.23;8.73;;;;;;;;;;4991906;28;20838;-71
2021/10/28 09:52:46;;;;;;;10.82;9.25;;;;;;;;;;4994915;28;20202;-71
2021/10/28 09:58:01;;;;;;;12.30;9.68;;;;;;;;;;4999704;28;20190;-71
2021/10/28 10:00:34;;;;;;;13.52;8.90;;;;;;;;;;4992370;28;20207;-71
2021/10/28 10:03:07;;;;;;;15.90;10.68;;;;;;;;;;4994558;28;20316;-71
2021/10/28 10:05:33;;;;;;;10.70;9.05;;;;;;;;;;4989395;28;20190;-70
2021/10/28 10:08:06;;;;;;;13.55;9.40;;;;;;;;;;4988797;28;20182;-71
2021/10/28 10:10:31;;;;;;;10.63;9.15;;;;;;;;;;4992102;28;20217;-71
2021/10/28 10:12:57;;;;;;;10.18;9.02;;;;;;;;;;4990553;28;20274;-71
2021/10/28 10:15:23;;;;;;;12.57;8.27;;;;;;;;;;4989979;28;20270;-71
2021/10/28 10:17:52;;;;;;;11.02;9.00;;;;;;;;;;4995925;28;20285;-71
2021/10/28 10:20:20;;;;;;;11.52;9.52;;;;;;;;;;4987312;28;20221;-71
2021/10/28 10:22:58;;;;;;;10.57;8.60;;;;;;;;;;4992773;28;20191;-71
2021/10/28 10:25:35;;;;;;;12.93;9.48;;;;;;;;;;4992516;28;20183;-71
2021/10/28 10:28:45;;;;;;;10.85;8.45;;;;;;;;;;4990213;28;20178;-71
2021/10/28 11:29:00;;;;;;;10.88;9.40;;;;;;;;;;4995692;28;20245;-71
2021/10/28 11:32:04;;;;;;;10.70;9.60;;;;;;;;;;4991537;28;20289;-71
2021/10/28 12:21:49;;;;;;;8.98;7.03;;;;;;;;;;4999809;28;20699;-71
2021/10/28 12:46:10;;;;;;;7.55;5.70;;;;;;;;;;4997842;28;20233;-72
2021/10/28 12:48:58;;;;;;;6.53;5.35;;;;;;;;;;4976508;28;20183;-72
2021/10/28 12:54:07;;;;;;;8.00;5.70;;;;;;;;;;5018448;28;20504;-71
2021/10/28 12:56:51;;;;;;;7.28;5.18;;;;;;;;;;5015662;28;20222;-71
2021/10/28 13:05:25;;;;;;;7.75;4.88;;;;;;;;;;5004996;28;20675;-71
2021/10/28 13:49:13;;;;;;;5.80;4.93;;;;;;;;;;4939455;28;20272;-71
2021/10/28 14:32:29;;;;;;;6.65;4.45;;;;;;;;;;5004273;28;20694;-73
2021/10/28 15:29:18;;;;;;;5.47;3.60;;;;;;;;;;5012347;28;20352;-74
2021/10/28 15:40:32;;;;;;;3.95;3.53;;;;;;;;;;5026037;28;20301;-72
2021/10/28 15:48:11;;;;;;;3.60;3.30;;;;;;;;;;5033577;28;20273;-74
2021/10/28 16:22:16;;;;;;;4.78;3.30;;;;;;;;;;5012780;28;20190;-74
2021/10/28 16:24:42;;;;;;;3.67;3.25;;;;;;;;;;4998526;28;20182;-74
2021/10/28 16:27:07;;;;;;;3.92;3.35;;;;;;;;;;5014590;28;20214;-73
2021/10/28 16:29:33;;;;;;;6.97;3.97;;;;;;;;;;5013750;28;20190;-74
2021/10/28 16:31:58;;;;;;;4.85;4.07;;;;;;;;;;5011115;28;20205;-74
2021/10/28 16:34:27;;;;;;;4.05;3.65;;;;;;;;;;5012353;28;20182;-74
2021/10/28 16:36:53;;;;;;;6.38;3.75;;;;;;;;;;5013314;28;20316;-74
2021/10/28 16:39:18;;;;;;;4.85;4.00;;;;;;;;;;5011052;28;21434;-74
2021/10/28 16:41:46;;;;;;;5.88;3.92;;;;;;;;;;5013403;28;20523;-74
2021/10/28 16:44:12;;;;;;;10.10;4.38;;;;;;;;;;5013143;28;20186;-73
2021/10/28 16:46:38;;;;;;;6.70;4.43;;;;;;;;;;5011993;28;20208;-75
2021/10/28 16:49:04;;;;;;;4.95;3.85;;;;;;;;;;5011627;28;20182;-73
2021/10/28 16:51:30;;;;;;;8.85;4.45;;;;;;;;;;5015774;28;20182;-73
2021/10/28 16:53:55;;;;;;;5.28;3.85;;;;;;;;;;5029852;28;20181;-72
2021/10/28 16:56:20;;;;;;;6.18;4.18;;;;;;;;;;5032315;28;20676;-73
2021/10/28 16:58:46;;;;;;;5.00;4.30;;;;;;;;;;5033061;28;20178;-75
2021/10/28 17:01:11;;;;;;;6.38;4.35;;;;;;;;;;5018160;28;20202;-73
2021/10/28 17:03:36;;;;;;;6.18;4.65;;;;;;;;;;5013671;28;21100;-73
2021/10/28 17:06:02;;;;;;;5.43;4.47;;;;;;;;;;5013106;28;20189;-73
2021/10/28 17:08:29;;;;;;;6.07;4.65;;;;;;;;;;5011616;28;20227;-75
2021/10/28 17:10:55;;;;;;;4.55;4.07;;;;;;;;;;5012553;28;20398;-73
2021/10/28 17:13:20;;;;;;;8.48;4.30;;;;;;;;;;5011725;28;20190;-73
2021/10/28 17:15:45;;;;;;;7.03;4.35;;;;;;;;;;5011069;28;20194;-73
2021/10/28 17:18:11;;;;;;;5.03;4.40;;;;;;;;;;5013629;28;20251;-73
2021/10/28 17:20:37;;;;;;;5.53;5.03;;;;;;;;;;5011120;28;20206;-73
2021/10/28 17:23:03;;;;;;;6.07;5.45;;;;;;;;;;5011589;28;20216;-73
2021/10/28 17:25:31;;;;;;;9.55;6.20;;;;;;;;;;5012185;28;20550;-73
2021/10/28 17:27:56;;;;;;;8.40;5.28;;;;;;;;;;5013629;28;20335;-73
2021/10/28 17:30:22;;;;;;;6.22;4.85;;;;;;;;;;5009949;28;21614;-73
2021/10/28 17:32:47;;;;;;;8.90;5.50;;;;;;;;;;5010806;28;20782;-73
2021/10/28 17:35:13;;;;;;;8.02;5.13;;;;;;;;;;5009998;28;20558;-73
2021/10/28 17:37:39;;;;;;;5.97;5.35;;;;;;;;;;4992526;28;20194;-73
2021/10/28 17:40:05;;;;;;;5.72;5.10;;;;;;;;;;5010765;28;20539;-73
2021/10/28 17:42:30;;;;;;;10.65;5.70;;;;;;;;;;5010266;28;20761;-73
2021/10/28 17:44:57;;;;;;;8.40;6.53;;;;;;;;;;4995506;28;20672;-73
2021/10/28 17:47:23;;;;;;;7.97;5.53;;;;;;;;;;5009644;28;20229;-73
2021/10/28 17:49:49;;;;;;;6.38;5.70;;;;;;;;;;5008956;28;20690;-75
2021/10/28 17:52:14;;;;;;;7.72;5.65;;;;;;;;;;5010414;28;21729;-74
2021/10/28 17:54:40;;;;;;;6.00;5.40;;;;;;;;;;4994065;28;20187;-74
2021/10/28 17:57:06;;;;;;;9.10;5.45;;;;;;;;;;5013393;28;20723;-74
2021/10/28 17:59:31;;;;;;;5.80;5.20;;;;;;;;;;5010649;28;20192;-74
2021/10/28 18:01:57;;;;;;;5.38;4.88;;;;;;;;;;5009732;28;20182;-74
2021/10/28 18:04:22;;;;;;;8.35;5.93;;;;;;;;;;5010452;28;20242;-74
2021/10/28 18:06:48;;;;;;;9.02;5.80;;;;;;;;;;4993934;28;20198;-74
2021/10/28 18:09:13;;;;;;;8.20;6.03;;;;;;;;;;5009840;28;20174;-74
2021/10/28 18:11:38;;;;;;;6.30;5.07;;;;;;;;;;5010388;28;20185;-74
2021/10/28 18:14:10;;;;;;;8.00;6.07;;;;;;;;;;5009457;28;20240;-73
2021/10/28 18:16:35;;;;;;;8.48;6.13;;;;;;;;;;4991680;28;20214;-73
2021/10/28 18:19:01;;;;;;;7.88;6.03;;;;;;;;;;5008389;28;20177;-73
2021/10/28 18:21:27;;;;;;;6.57;5.53;;;;;;;;;;4992563;28;20203;-75
2021/10/28 18:23:54;;;;;;;5.93;5.32;;;;;;;;;;5010908;28;20197;-74
2021/10/28 18:26:20;;;;;;;9.83;5.97;;;;;;;;;;5011347;28;20198;-74
2021/10/28 18:28:45;;;;;;;10.45;5.55;;;;;;;;;;5012647;28;20240;-73
2021/10/28 18:31:11;;;;;;;9.73;5.70;;;;;;;;;;5023502;28;20182;-74
2021/10/28 18:33:36;;;;;;;7.20;5.47;;;;;;;;;;5017398;28;20261;-72
2021/10/28 18:36:02;;;;;;;10.07;5.33;;;;;;;;;;5009846;28;20656;-74
2021/10/28 18:38:30;;;;;;;7.38;5.38;;;;;;;;;;5009618;28;20286;-74
2021/10/28 18:40:56;;;;;;;7.60;5.97;;;;;;;;;;5009865;28;20260;-74
2021/10/28 18:43:21;;;;;;;8.68;5.35;;;;;;;;;;5009528;28;20639;-74
2021/10/28 18:45:46;;;;;;;13.20;6.10;;;;;;;;;;5009333;28;20189;-74
2021/10/28 18:48:12;;;;;;;9.90;4.88;;;;;;;;;;5008976;28;20769;-74
2021/10/28 18:50:37;;;;;;;9.95;6.30;;;;;;;;;;5008827;28;20240;-74
2021/10/28 18:53:02;;;;;;;10.53;5.93;;;;;;;;;;4998760;28;20192;-74
2021/10/28 18:55:28;;;;;;;12.00;6.32;;;;;;;;;;5009024;28;20205;-75
2021/10/28 18:57:53;;;;;;;12.07;5.88;;;;;;;;;;5011033;28;20206;-73
2021/10/28 19:00:19;;;;;;;8.83;6.40;;;;;;;;;;5023099;28;20428;-74
2021/10/28 19:02:44;;;;;;;10.57;6.65;;;;;;;;;;5013885;28;20644;-75
2021/10/28 19:05:09;;;;;;;7.27;5.40;;;;;;;;;;5015539;28;20548;-74
2021/10/28 19:07:34;;;;;;;14.00;5.68;;;;;;;;;;5016361;28;20225;-74
2021/10/28 19:10:00;;;;;;;8.07;5.27;;;;;;;;;;5013541;28;20189;-74
2021/10/28 19:12:25;;;;;;;9.88;6.53;;;;;;;;;;5016513;28;20178;-74
2021/10/28 19:14:52;;;;;;;7.80;6.10;;;;;;;;;;5015542;28;20232;-74
2021/10/28 19:17:17;;;;;;;9.43;5.80;;;;;;;;;;5015913;28;20332;-75
2021/10/28 19:19:42;;;;;;;9.50;6.03;;;;;;;;;;5019940;28;20202;-73
2021/10/28 19:22:08;;;;;;;11.93;6.25;;;;;;;;;;5015276;28;20370;-75
2021/10/28 19:24:33;;;;;;;14.15;6.20;;;;;;;;;;5016447;28;20264;-72
2021/10/28 19:26:59;;;;;;;11.20;5.83;;;;;;;;;;5018717;28;20214;-72
2021/10/28 19:29:26;;;;;;;11.77;7.03;;;;;;;;;;5015955;28;20213;-72
2021/10/28 19:31:58;;;;;;;12.77;6.83;;;;;;;;;;5015388;28;20182;-72
2021/10/28 19:34:24;;;;;;;7.10;5.80;;;;;;;;;;5016455;28;20183;-72
2021/10/28 19:40:05;;;;;;;7.73;5.33;;;;;;;;;;4947225;28;20264;-72
2021/10/28 19:45:28;;;;;;;15.70;5.90;;;;;;;;;;5017578;28;20190;-73
2021/10/28 19:47:54;;;;;;;11.00;5.83;;;;;;;;;;5013480;28;20284;-73
2021/10/28 19:50:20;;;;;;;9.73;5.83;;;;;;;;;;4994694;28;20243;-73
2021/10/28 19:52:45;;;;;;;8.33;5.20;;;;;;;;;;5015302;28;20249;-73
2021/10/28 19:55:11;;;;;;;12.97;5.63;;;;;;;;;;5015743;28;20205;-74
2021/10/28 19:57:39;;;;;;;11.40;5.83;;;;;;;;;;5016331;28;20204;-74
2021/10/28 20:00:23;;;;;;;9.33;5.90;;;;;;;;;;5019954;28;20291;-74
2021/10/28 20:05:35;;;;;;;10.60;6.73;;;;;;;;;;5016696;28;20232;-74
2021/10/28 20:21:10;;;;;;;9.20;6.33;;;;;;;;;;5031820;28;20220;-72
2021/10/28 20:23:36;;;;;;;9.33;6.33;;;;;;;;;;5030743;28;20247;-72
2021/10/28 20:26:01;;;;;;;9.57;6.30;;;;;;;;;;5032443;28;20268;-72
2021/10/28 20:28:27;;;;;;;9.23;6.13;;;;;;;;;;5031048;28;20276;-72
2021/10/28 20:30:57;;;;;;;7.53;5.67;;;;;;;;;;5011969;28;20186;-72
2021/10/28 20:33:24;;;;;;;7.90;5.87;;;;;;;;;;5010797;28;20182;-72
2021/10/28 20:38:34;;;;;;;10.67;7.17;;;;;;;;;;5012000;28;20205;-72
2021/10/28 20:40:59;;;;;;;8.27;6.43;;;;;;;;;;5012159;28;20207;-71
2021/10/28 20:43:24;;;;;;;9.17;6.67;;;;;;;;;;5010845;28;20182;-71
2021/10/28 20:45:49;;;;;;;9.73;7.17;;;;;;;;;;5007305;28;20617;-72
2021/10/28 20:48:15;;;;;;;7.67;6.43;;;;;;;;;;5006227;28;20743;-72
2021/10/28 20:50:40;;;;;;;10.20;6.50;;;;;;;;;;5010191;28;20183;-72
2021/10/28 20:53:05;;;;;;;10.07;6.00;;;;;;;;;;5009170;28;20246;-72
2021/10/28 20:55:31;;;;;;;8.43;6.77;;;;;;;;;;5011003;28;20186;-72
2021/10/28 20:57:56;;;;;;;14.70;7.07;;;;;;;;;;5012766;28;20294;-71
2021/10/28 21:00:22;;;;;;;9.17;6.43;;;;;;;;;;5010036;28;20190;-71
2021/10/28 21:02:48;;;;;;;8.80;7.17;;;;;;;;;;5009791;28;20185;-71
2021/10/28 21:05:15;;;;;;;9.30;7.20;;;;;;;;;;4990630;28;20170;-71
2021/10/28 21:07:41;;;;;;;9.50;6.90;;;;;;;;;;5014438;28;20218;-71
2021/10/28 21:10:08;;;;;;;8.70;6.70;;;;;;;;;;4995719;28;20241;-71
2021/10/28 21:12:33;;;;;;;9.50;6.43;;;;;;;;;;5010291;28;20245;-72
2021/10/28 21:14:58;;;;;;;7.63;6.20;;;;;;;;;;5011070;28;20191;-71
2021/10/28 21:17:23;;;;;;;10.20;7.10;;;;;;;;;;5015436;28;20217;-71
2021/10/28 21:19:49;;;;;;;9.97;6.97;;;;;;;;;;5011878;28;20193;-71
2021/10/28 21:22:15;;;;;;;13.13;7.53;;;;;;;;;;4992902;28;20194;-70
2021/10/28 21:24:44;;;;;;;10.23;6.63;;;;;;;;;;5007342;28;20201;-71
2021/10/28 21:27:10;;;;;;;10.53;7.20;;;;;;;;;;5014041;28;20631;-71
2021/10/28 21:29:35;;;;;;;9.03;6.93;;;;;;;;;;5006656;28;20261;-70
2021/10/28 21:32:00;;;;;;;8.00;6.97;;;;;;;;;;5006841;28;20178;-73
2021/10/28 21:34:25;;;;;;;8.13;6.53;;;;;;;;;;5009019;28;20178;-71
2021/10/28 21:36:51;;;;;;;9.03;7.07;;;;;;;;;;5008538;28;20195;-70
2021/10/28 21:39:16;;;;;;;10.80;7.03;;;;;;;;;;5027223;28;20710;-71
2021/10/28 21:41:41;;;;;;;10.40;8.13;;;;;;;;;;4993978;28;20209;-71
2021/10/28 21:44:09;;;;;;;10.07;7.30;;;;;;;;;;5010849;28;20981;-71
2021/10/28 21:46:35;;;;;;;9.20;7.13;;;;;;;;;;4992838;28;20274;-71
2021/10/28 21:49:00;;;;;;;9.33;7.23;;;;;;;;;;5009378;28;20190;-71
2021/10/28 21:51:27;;;;;;;10.00;6.97;;;;;;;;;;5011548;28;20182;-71
2021/10/28 21:53:54;;;;;;;8.73;7.27;;;;;;;;;;5010132;28;20194;-70
2021/10/28 22:24:56;;;;;;;9.83;7.57;;;;;;;;;;5010961;28;20608;-71
2021/10/28 22:27:22;;;;;;;12.17;7.97;;;;;;;;;;5010779;28;20220;-71
2021/10/28 22:29:47;;;;;;;10.53;8.13;;;;;;;;;;5011089;28;20259;-71
2021/10/28 22:32:13;;;;;;;11.73;7.67;;;;;;;;;;5014324;28;20270;-71
2021/10/28 22:34:40;;;;;;;10.27;7.70;;;;;;;;;;5011008;28;20184;-73
2021/10/28 22:37:08;;;;;;;10.30;8.17;;;;;;;;;;5010993;28;21710;-73
2021/10/28 22:39:51;;;;;;;13.70;7.60;;;;;;;;;;5012506;28;20183;-72
2021/10/28 22:42:16;;;;;;;10.77;7.80;;;;;;;;;;5018626;28;20205;-73
2021/10/28 22:44:42;;;;;;;10.03;7.60;;;;;;;;;;5017692;28;20178;-73
2021/10/28 22:47:07;;;;;;;12.63;8.10;;;;;;;;;;4991810;28;20289;-73
2021/10/28 22:49:32;;;;;;;13.10;8.80;;;;;;;;;;4994883;28;20193;-71
2021/10/28 22:52:05;;;;;;;10.97;8.20;;;;;;;;;;5013749;28;20185;-73
2021/10/28 22:54:30;;;;;;;10.47;7.83;;;;;;;;;;5018546;28;20177;-73
2021/10/28 22:56:56;;;;;;;11.37;7.87;;;;;;;;;;5020048;28;20202;-71
2021/10/28 22:59:22;;;;;;;12.03;8.50;;;;;;;;;;5024349;28;20170;-71
2021/10/28 23:01:55;;;;;;;11.27;8.07;;;;;;;;;;5027862;28;20285;-71
2021/10/28 23:04:56;;;;;;;10.87;8.87;;;;;;;;;;5018622;28;20265;-71
2021/10/28 23:15:16;;;;;;;11.10;9.03;;;;;;;;;;5020645;28;20173;-71
2021/10/28 23:20:42;;;;;;;12.10;9.77;;;;;;;;;;5020582;28;20636;-71
2021/10/28 23:23:08;;;;;;;9.70;8.70;;;;;;;;;;5004038;28;20798;-71
2021/10/28 23:25:33;;;;;;;14.17;8.67;;;;;;;;;;4997316;28;20238;-71
2021/10/28 23:27:58;;;;;;;15.67;9.50;;;;;;;;;;5026924;28;20205;-71
2021/10/28 23:30:24;;;;;;;11.97;8.67;;;;;;;;;;4992988;28;20212;-71
2021/10/28 23:32:49;;;;;;;12.90;9.27;;;;;;;;;;5009495;28;20679;-71
2021/10/28 23:35:14;;;;;;;11.00;9.57;;;;;;;;;;5008930;28;20656;-71
2021/10/28 23:37:39;;;;;;;12.80;9.67;;;;;;;;;;5007919;28;20199;-72
2021/10/28 23:40:05;;;;;;;11.07;9.37;;;;;;;;;;5008154;28;20194;-71